Time;durP1;ratioP1;P1;durP2;ratioP2;P2;SDS_P1;SDS_P2;PMS_P1;PMS_P2;Temp;Humidity;BMP_temperature;BMP_pressure;BME280_temperature;BME280_humidity;BME280_pressure;Samples;Min_cycle;Max_cycle;Signal;HPM_P1;HPM_P2
2022/07/24 00:02:16;;;;;;;10.82;9.73;;;;;;;;;;5166803;27;20230;-70
2022/07/24 00:04:42;;;;;;;10.63;9.65;;;;;;;;;;5166632;27;20198;-70
2022/07/24 00:07:08;;;;;;;11.10;10.10;;;;;;;;;;5166504;27;20201;-70
2022/07/24 00:09:35;;;;;;;11.25;10.25;;;;;;;;;;5166841;27;20197;-70
2022/07/24 00:12:01;;;;;;;10.80;9.73;;;;;;;;;;5166685;27;20193;-70
2022/07/24 00:14:29;;;;;;;10.85;9.80;;;;;;;;;;5166513;27;20205;-70
2022/07/24 00:16:55;;;;;;;11.57;10.50;;;;;;;;;;5166371;27;20217;-70
2022/07/24 00:19:21;;;;;;;11.82;10.73;;;;;;;;;;5166587;27;20245;-70
2022/07/24 00:21:47;;;;;;;11.63;10.50;;;;;;;;;;5166559;27;20193;-70
2022/07/24 00:24:14;;;;;;;11.82;10.63;;;;;;;;;;5166490;27;20194;-70
2022/07/24 00:26:40;;;;;;;11.55;10.45;;;;;;;;;;5166162;27;20227;-71
2022/07/24 00:29:06;;;;;;;12.60;10.57;;;;;;;;;;5166704;27;20198;-71
2022/07/24 00:31:34;;;;;;;10.98;9.98;;;;;;;;;;5166422;27;20215;-71
2022/07/24 00:34:00;;;;;;;11.13;10.02;;;;;;;;;;5166239;27;20230;-71
2022/07/24 00:36:27;;;;;;;11.27;10.20;;;;;;;;;;5166291;27;20262;-71
2022/07/24 00:38:53;;;;;;;10.38;9.52;;;;;;;;;;5165467;27;20201;-71
2022/07/24 00:41:19;;;;;;;12.27;11.07;;;;;;;;;;5166030;27;20206;-71
2022/07/24 00:44:03;;;;;;;11.90;10.70;;;;;;;;;;5166023;27;20238;-71
2022/07/24 00:46:30;;;;;;;13.20;11.07;;;;;;;;;;5165823;27;20233;-71
2022/07/24 00:48:57;;;;;;;12.15;11.05;;;;;;;;;;5166023;27;20193;-71
2022/07/24 00:51:24;;;;;;;12.60;11.35;;;;;;;;;;5165867;27;20238;-71
2022/07/24 00:53:50;;;;;;;13.40;10.35;;;;;;;;;;5165759;27;20231;-71
2022/07/24 00:56:16;;;;;;;11.25;10.25;;;;;;;;;;5165608;27;20217;-71
2022/07/24 00:58:43;;;;;;;12.02;10.82;;;;;;;;;;5165887;27;20425;-71
2022/07/24 01:01:09;;;;;;;11.93;10.65;;;;;;;;;;5165805;27;20231;-71
2022/07/24 01:03:35;;;;;;;10.55;9.68;;;;;;;;;;5165729;27;20220;-71
2022/07/24 01:06:03;;;;;;;11.77;10.73;;;;;;;;;;5165329;27;20585;-71
2022/07/24 01:08:29;;;;;;;13.18;11.50;;;;;;;;;;5165241;27;20220;-71
2022/07/24 01:10:56;;;;;;;11.50;10.38;;;;;;;;;;5165668;27;20254;-71
2022/07/24 01:13:22;;;;;;;11.80;10.40;;;;;;;;;;5165573;27;20215;-71
2022/07/24 01:15:48;;;;;;;11.30;10.20;;;;;;;;;;5165239;27;20246;-70
2022/07/24 01:18:15;;;;;;;11.82;10.60;;;;;;;;;;5164471;27;20425;-70
2022/07/24 01:20:46;;;;;;;11.48;10.32;;;;;;;;;;5165510;27;20209;-70
2022/07/24 01:23:13;;;;;;;12.05;10.82;;;;;;;;;;5165407;27;20193;-71
2022/07/24 01:25:39;;;;;;;11.40;10.50;;;;;;;;;;5165272;27;20224;-71
2022/07/24 01:28:05;;;;;;;11.15;10.15;;;;;;;;;;5164991;27;20431;-71
2022/07/24 01:30:32;;;;;;;16.10;11.48;;;;;;;;;;5165135;27;20206;-71
2022/07/24 01:32:58;;;;;;;13.32;10.40;;;;;;;;;;5164984;27;20193;-71
2022/07/24 01:35:24;;;;;;;11.63;10.43;;;;;;;;;;5165240;27;20209;-70
2022/07/24 01:37:52;;;;;;;12.30;11.30;;;;;;;;;;5164852;27;20551;-70
2022/07/24 01:40:19;;;;;;;11.85;10.85;;;;;;;;;;5165078;27;20300;-70
2022/07/24 01:42:45;;;;;;;11.00;10.05;;;;;;;;;;5165009;27;20531;-70
2022/07/24 01:45:12;;;;;;;12.45;11.13;;;;;;;;;;5164910;27;20385;-71
2022/07/24 01:47:38;;;;;;;12.57;10.88;;;;;;;;;;5164543;27;20227;-71
2022/07/24 01:50:05;;;;;;;11.15;10.02;;;;;;;;;;5164150;27;20231;-71
2022/07/24 01:52:31;;;;;;;13.07;11.75;;;;;;;;;;5164796;27;20201;-71
2022/07/24 01:54:59;;;;;;;11.90;10.90;;;;;;;;;;5164736;27;20231;-71
2022/07/24 01:57:25;;;;;;;12.40;11.13;;;;;;;;;;5164339;27;20545;-71
2022/07/24 01:59:52;;;;;;;11.85;10.75;;;;;;;;;;5164560;27;20215;-70
2022/07/24 02:02:18;;;;;;;14.38;10.93;;;;;;;;;;5164727;27;20194;-70
2022/07/24 02:04:44;;;;;;;11.50;10.57;;;;;;;;;;5164496;27;20199;-70
2022/07/24 02:07:10;;;;;;;12.27;11.18;;;;;;;;;;5164331;27;20197;-70
2022/07/24 02:09:37;;;;;;;12.75;11.60;;;;;;;;;;5164513;27;20194;-70
2022/07/24 02:12:05;;;;;;;12.40;11.07;;;;;;;;;;5164382;27;20496;-70
2022/07/24 02:14:31;;;;;;;12.10;10.88;;;;;;;;;;5164360;27;20197;-70
2022/07/24 02:16:58;;;;;;;11.82;10.82;;;;;;;;;;5164251;27;20217;-70
2022/07/24 02:19:24;;;;;;;11.68;10.73;;;;;;;;;;5164520;27;20513;-70
2022/07/24 02:21:51;;;;;;;12.50;11.05;;;;;;;;;;5164424;27;20216;-70
2022/07/24 02:24:17;;;;;;;12.85;11.60;;;;;;;;;;5164361;27;20518;-70
2022/07/24 02:26:43;;;;;;;12.85;11.52;;;;;;;;;;5164045;27;20415;-70
2022/07/24 02:29:11;;;;;;;13.85;11.05;;;;;;;;;;5164108;27;20197;-70
2022/07/24 02:31:37;;;;;;;15.88;11.70;;;;;;;;;;5164476;27;20200;-70
2022/07/24 02:34:03;;;;;;;12.80;11.55;;;;;;;;;;5164292;27;20200;-70
2022/07/24 02:36:29;;;;;;;13.52;11.27;;;;;;;;;;5164091;27;20246;-70
2022/07/24 02:38:56;;;;;;;12.73;11.52;;;;;;;;;;5164239;27;20200;-70
2022/07/24 02:41:22;;;;;;;12.07;10.98;;;;;;;;;;5164066;27;20205;-70
2022/07/24 02:43:48;;;;;;;11.80;10.70;;;;;;;;;;5164052;27;20193;-70
2022/07/24 02:46:16;;;;;;;11.85;10.80;;;;;;;;;;5163785;27;20193;-70
2022/07/24 02:48:42;;;;;;;13.85;11.60;;;;;;;;;;5164054;27;20198;-70
2022/07/24 02:51:10;;;;;;;12.10;11.00;;;;;;;;;;5164034;27;20501;-70
2022/07/24 02:53:36;;;;;;;13.07;11.18;;;;;;;;;;5164115;27;20598;-70
2022/07/24 02:56:02;;;;;;;12.98;11.57;;;;;;;;;;5163658;27;20198;-70
2022/07/24 02:58:29;;;;;;;12.95;11.43;;;;;;;;;;5163825;27;20208;-70
2022/07/24 03:00:55;;;;;;;12.13;11.13;;;;;;;;;;5165716;27;20216;-70
2022/07/24 03:03:22;;;;;;;12.10;11.00;;;;;;;;;;5168096;27;20197;-70
2022/07/24 03:05:49;;;;;;;14.18;12.15;;;;;;;;;;5167976;27;20214;-70
2022/07/24 03:08:15;;;;;;;12.38;11.38;;;;;;;;;;5167738;27;20425;-71
2022/07/24 03:10:41;;;;;;;12.77;11.65;;;;;;;;;;5167774;27;20250;-70
2022/07/24 03:13:08;;;;;;;12.73;11.52;;;;;;;;;;5167785;27;20202;-70
2022/07/24 03:15:34;;;;;;;12.80;11.70;;;;;;;;;;5168024;27;20193;-70
2022/07/24 03:18:00;;;;;;;12.20;11.10;;;;;;;;;;5167399;27;20214;-70
2022/07/24 03:20:29;;;;;;;12.57;11.35;;;;;;;;;;5168092;27;20198;-70
2022/07/24 03:22:56;;;;;;;13.07;11.80;;;;;;;;;;5168120;27;20238;-70
2022/07/24 03:25:22;;;;;;;13.00;11.70;;;;;;;;;;5167458;27;20201;-70
2022/07/24 03:27:49;;;;;;;13.48;12.07;;;;;;;;;;5167462;27;20204;-70
2022/07/24 03:30:15;;;;;;;12.57;11.40;;;;;;;;;;5167574;27;20220;-71
2022/07/24 03:32:42;;;;;;;12.65;11.40;;;;;;;;;;5167450;27;20238;-70
2022/07/24 03:35:08;;;;;;;13.63;12.35;;;;;;;;;;5167483;27;20238;-70
2022/07/24 03:37:36;;;;;;;11.93;10.82;;;;;;;;;;5167145;27;20209;-70
2022/07/24 03:40:03;;;;;;;13.65;12.20;;;;;;;;;;5167290;27;20200;-70
2022/07/24 03:42:29;;;;;;;13.73;12.35;;;;;;;;;;5167693;27;20193;-70
2022/07/24 03:44:56;;;;;;;13.30;12.18;;;;;;;;;;5167265;27;20207;-70
2022/07/24 03:47:22;;;;;;;13.40;12.10;;;;;;;;;;5167172;27;20389;-70
2022/07/24 03:49:48;;;;;;;12.88;11.77;;;;;;;;;;5167277;27;20198;-70
2022/07/24 03:52:14;;;;;;;13.13;11.80;;;;;;;;;;5167713;27;20202;-70
2022/07/24 03:54:42;;;;;;;15.82;11.70;;;;;;;;;;5166999;27;20193;-70
2022/07/24 03:57:08;;;;;;;12.27;11.20;;;;;;;;;;5166698;27;20225;-70
2022/07/24 03:59:35;;;;;;;11.48;10.55;;;;;;;;;;5167068;27;20406;-70
2022/07/24 04:02:01;;;;;;;14.10;11.50;;;;;;;;;;5166822;27;20194;-70
2022/07/24 04:04:27;;;;;;;13.30;12.10;;;;;;;;;;5166744;27;20509;-70
2022/07/24 04:06:54;;;;;;;12.52;11.40;;;;;;;;;;5166542;27;20501;-70
2022/07/24 04:09:20;;;;;;;12.95;11.85;;;;;;;;;;5166785;27;20233;-70
2022/07/24 04:11:49;;;;;;;12.10;11.13;;;;;;;;;;5166051;27;20265;-70
2022/07/24 04:14:15;;;;;;;12.20;11.10;;;;;;;;;;5166677;27;20200;-70
2022/07/24 04:16:41;;;;;;;12.35;11.15;;;;;;;;;;5166281;27;20205;-68
2022/07/24 04:19:07;;;;;;;12.80;11.63;;;;;;;;;;5166652;27;20200;-68
2022/07/24 04:21:34;;;;;;;12.23;11.05;;;;;;;;;;5166623;27;20201;-68
2022/07/24 04:24:00;;;;;;;11.98;10.98;;;;;;;;;;5166407;27;20196;-68
2022/07/24 04:26:27;;;;;;;12.32;11.23;;;;;;;;;;5166305;27;20194;-68
2022/07/24 04:28:54;;;;;;;12.95;11.82;;;;;;;;;;5166338;27;20189;-68
2022/07/24 04:31:21;;;;;;;12.60;11.40;;;;;;;;;;5166478;27;20230;-68
2022/07/24 04:33:47;;;;;;;13.57;11.75;;;;;;;;;;5166346;27;20193;-68
2022/07/24 04:36:13;;;;;;;13.07;11.80;;;;;;;;;;5165974;27;20193;-68
2022/07/24 04:38:40;;;;;;;13.15;11.82;;;;;;;;;;5166372;27;20221;-68
2022/07/24 04:41:06;;;;;;;12.23;11.13;;;;;;;;;;5166232;27;20193;-68
2022/07/24 04:43:32;;;;;;;13.93;12.50;;;;;;;;;;5166205;27;20197;-68
2022/07/24 04:46:00;;;;;;;14.15;12.70;;;;;;;;;;5165909;27;20445;-68
2022/07/24 04:48:26;;;;;;;13.18;12.07;;;;;;;;;;5165888;27;20193;-68
2022/07/24 04:50:52;;;;;;;13.73;12.52;;;;;;;;;;5165879;27;20189;-68
2022/07/24 04:53:19;;;;;;;13.57;12.25;;;;;;;;;;5166286;27;20197;-68
2022/07/24 04:55:45;;;;;;;13.60;11.90;;;;;;;;;;5165943;27;20209;-68
2022/07/24 04:58:11;;;;;;;12.45;11.25;;;;;;;;;;5165594;27;20224;-68
2022/07/24 05:00:37;;;;;;;13.10;11.45;;;;;;;;;;5165641;27;20201;-68
2022/07/24 05:03:05;;;;;;;13.50;12.20;;;;;;;;;;5165702;27;20194;-68
2022/07/24 05:05:31;;;;;;;12.70;11.60;;;;;;;;;;5165512;27;20545;-68
2022/07/24 05:07:58;;;;;;;14.07;12.32;;;;;;;;;;5165373;27;20220;-68
2022/07/24 05:10:24;;;;;;;13.57;12.18;;;;;;;;;;5165643;27;20197;-68
2022/07/24 05:12:50;;;;;;;13.80;12.40;;;;;;;;;;5165680;27;20247;-68
2022/07/24 05:15:16;;;;;;;12.80;11.57;;;;;;;;;;5165477;27;20194;-68
2022/07/24 05:17:43;;;;;;;17.35;12.32;;;;;;;;;;5165089;27;20251;-68
2022/07/24 05:20:11;;;;;;;13.10;11.80;;;;;;;;;;5165402;27;20202;-68
2022/07/24 05:22:37;;;;;;;12.98;11.73;;;;;;;;;;5165519;27;20388;-68
2022/07/24 05:25:04;;;;;;;13.32;12.13;;;;;;;;;;5165328;27;20198;-68
2022/07/24 05:27:30;;;;;;;13.65;12.27;;;;;;;;;;5165192;27;20190;-68
2022/07/24 05:29:56;;;;;;;13.02;11.73;;;;;;;;;;5165216;27;20207;-68
2022/07/24 05:32:22;;;;;;;13.65;12.35;;;;;;;;;;5165210;27;20558;-68
2022/07/24 05:34:49;;;;;;;13.40;12.07;;;;;;;;;;5165153;27;20210;-68
2022/07/24 05:37:16;;;;;;;13.70;12.48;;;;;;;;;;5164984;27;20214;-68
2022/07/24 05:39:43;;;;;;;13.88;12.52;;;;;;;;;;5165113;27;20365;-68
2022/07/24 05:42:09;;;;;;;13.27;12.07;;;;;;;;;;5165090;27;20193;-68
2022/07/24 05:44:36;;;;;;;12.57;11.48;;;;;;;;;;5164939;27;20197;-68
2022/07/24 05:47:02;;;;;;;15.43;12.18;;;;;;;;;;5164453;27;20197;-68
2022/07/24 05:49:29;;;;;;;14.10;12.68;;;;;;;;;;5164966;27;20198;-68
2022/07/24 05:51:55;;;;;;;14.05;12.68;;;;;;;;;;5165006;27;20202;-68
2022/07/24 05:54:22;;;;;;;13.70;12.40;;;;;;;;;;5164643;27;20194;-68
2022/07/24 05:56:49;;;;;;;13.63;12.23;;;;;;;;;;5164526;27;20357;-69
2022/07/24 05:59:15;;;;;;;14.23;12.55;;;;;;;;;;5164648;27;20217;-69
2022/07/24 06:01:41;;;;;;;14.40;12.93;;;;;;;;;;5164567;27;20198;-69
2022/07/24 06:04:08;;;;;;;15.00;13.68;;;;;;;;;;5164788;27;20197;-69
2022/07/24 06:06:34;;;;;;;16.02;13.18;;;;;;;;;;5164286;27;20262;-68
2022/07/24 06:09:00;;;;;;;22.05;19.35;;;;;;;;;;5164881;27;20227;-68
2022/07/24 06:11:28;;;;;;;18.55;16.67;;;;;;;;;;5164548;27;20268;-68
2022/07/24 06:13:54;;;;;;;15.98;14.38;;;;;;;;;;5164524;27;20201;-68
2022/07/24 06:16:20;;;;;;;15.27;13.55;;;;;;;;;;5163996;27;20238;-68
2022/07/24 06:18:47;;;;;;;13.95;12.55;;;;;;;;;;5164439;27;20218;-68
2022/07/24 06:21:13;;;;;;;12.85;11.70;;;;;;;;;;5164533;27;20197;-68
2022/07/24 06:23:40;;;;;;;13.10;11.70;;;;;;;;;;5164371;27;20208;-68
2022/07/24 06:26:06;;;;;;;12.75;11.45;;;;;;;;;;5164062;27;20224;-68
2022/07/24 06:28:34;;;;;;;12.85;11.75;;;;;;;;;;5164298;27;20433;-68
2022/07/24 06:31:00;;;;;;;12.98;11.88;;;;;;;;;;5164118;27;20198;-68
2022/07/24 06:33:26;;;;;;;15.32;13.13;;;;;;;;;;5164473;27;20198;-68
2022/07/24 06:35:52;;;;;;;14.23;12.80;;;;;;;;;;5163684;27;20193;-68
2022/07/24 06:38:19;;;;;;;12.65;11.52;;;;;;;;;;5163888;27;20209;-68
2022/07/24 06:40:45;;;;;;;14.27;12.13;;;;;;;;;;5164058;27;20193;-68
2022/07/24 06:43:11;;;;;;;14.27;12.07;;;;;;;;;;5164127;27;20238;-68
2022/07/24 06:45:39;;;;;;;13.10;11.95;;;;;;;;;;5163875;27;20207;-70
2022/07/24 06:48:05;;;;;;;13.45;11.80;;;;;;;;;;5164145;27;20373;-63
2022/07/24 06:50:31;;;;;;;13.07;11.60;;;;;;;;;;5164363;27;20414;-63
2022/07/24 06:52:58;;;;;;;12.35;11.25;;;;;;;;;;5164001;27;20193;-63
2022/07/24 06:55:24;;;;;;;14.43;12.95;;;;;;;;;;5164169;27;20193;-63
2022/07/24 06:57:50;;;;;;;16.80;14.45;;;;;;;;;;5163621;27;20214;-63
2022/07/24 07:00:17;;;;;;;12.50;11.32;;;;;;;;;;5164067;27;20528;-62
2022/07/24 07:02:45;;;;;;;13.60;12.38;;;;;;;;;;5165520;27;20194;-63
2022/07/24 07:05:11;;;;;;;13.07;11.32;;;;;;;;;;5165142;27;20552;-63
2022/07/24 07:07:38;;;;;;;17.42;15.63;;;;;;;;;;5163614;27;20202;-63
2022/07/24 07:10:05;;;;;;;14.20;12.70;;;;;;;;;;5163878;27;20382;-62
2022/07/24 07:12:31;;;;;;;11.93;10.93;;;;;;;;;;5163655;27;20265;-63
2022/07/24 07:14:59;;;;;;;16.73;12.50;;;;;;;;;;5163874;27;20197;-62
2022/07/24 07:17:25;;;;;;;13.18;11.02;;;;;;;;;;5163472;27;20390;-62
2022/07/24 07:19:53;;;;;;;12.30;10.60;;;;;;;;;;5163751;27;20262;-63
2022/07/24 07:22:19;;;;;;;12.07;10.95;;;;;;;;;;5163625;27;20201;-63
2022/07/24 07:24:45;;;;;;;11.95;10.85;;;;;;;;;;5163595;27;20201;-62
2022/07/24 07:27:11;;;;;;;12.15;10.82;;;;;;;;;;5163253;27;20212;-62
2022/07/24 07:29:38;;;;;;;11.10;10.20;;;;;;;;;;5163452;27;20246;-63
2022/07/24 07:32:04;;;;;;;13.43;12.15;;;;;;;;;;5163242;27;20517;-70
2022/07/24 07:34:30;;;;;;;12.88;11.40;;;;;;;;;;5163730;27;20224;-70
2022/07/24 07:36:58;;;;;;;10.70;9.48;;;;;;;;;;5163407;27;20201;-70
2022/07/24 07:39:24;;;;;;;10.73;9.82;;;;;;;;;;5163459;27;20228;-70
2022/07/24 07:41:51;;;;;;;10.68;9.77;;;;;;;;;;5163451;27;20201;-70
2022/07/24 07:44:17;;;;;;;11.48;10.32;;;;;;;;;;5163634;27;20248;-70
2022/07/24 07:46:43;;;;;;;10.73;9.73;;;;;;;;;;5163546;27;20201;-70
2022/07/24 07:49:09;;;;;;;10.63;9.65;;;;;;;;;;5166967;27;20450;-70
2022/07/24 07:51:36;;;;;;;10.63;9.88;;;;;;;;;;5167226;27;20418;-70
2022/07/24 07:54:03;;;;;;;10.43;9.43;;;;;;;;;;5166901;27;20227;-70
2022/07/24 07:56:30;;;;;;;11.65;10.45;;;;;;;;;;5166850;27;20418;-70
2022/07/24 07:58:56;;;;;;;10.25;9.40;;;;;;;;;;5166853;27;20217;-70
2022/07/24 08:01:23;;;;;;;10.52;9.73;;;;;;;;;;5166816;27;20238;-70
2022/07/24 08:03:49;;;;;;;10.02;9.23;;;;;;;;;;5166944;27;20527;-70
2022/07/24 08:06:15;;;;;;;10.15;9.20;;;;;;;;;;5166418;27;20228;-70
2022/07/24 08:08:42;;;;;;;9.55;8.65;;;;;;;;;;5166792;27;20196;-70
2022/07/24 08:11:09;;;;;;;9.75;8.80;;;;;;;;;;5166714;27;20202;-70
2022/07/24 08:13:35;;;;;;;9.77;8.98;;;;;;;;;;5166670;27;20230;-70
2022/07/24 08:16:02;;;;;;;10.68;8.65;;;;;;;;;;5166459;27;20197;-70
2022/07/24 08:18:28;;;;;;;10.68;8.52;;;;;;;;;;5166562;27;20216;-70
2022/07/24 08:20:54;;;;;;;9.27;8.38;;;;;;;;;;5166558;27;20193;-70
2022/07/24 08:23:20;;;;;;;8.80;8.15;;;;;;;;;;5166389;27;20200;-70
2022/07/24 08:25:47;;;;;;;9.00;8.30;;;;;;;;;;5166746;27;20201;-70
2022/07/24 08:28:14;;;;;;;8.05;7.45;;;;;;;;;;5166351;27;20196;-70
2022/07/24 08:30:40;;;;;;;9.48;8.68;;;;;;;;;;5166416;27;20193;-70
2022/07/24 08:33:07;;;;;;;9.77;8.65;;;;;;;;;;5166327;27;20512;-70
2022/07/24 08:35:33;;;;;;;8.45;7.65;;;;;;;;;;5166205;27;20193;-70
2022/07/24 08:38:00;;;;;;;8.75;8.00;;;;;;;;;;5165592;27;20493;-70
2022/07/24 08:40:26;;;;;;;11.93;7.88;;;;;;;;;;5166349;27;20200;-70
2022/07/24 08:42:52;;;;;;;7.85;7.25;;;;;;;;;;5166224;27;20193;-69
2022/07/24 08:45:20;;;;;;;7.35;6.72;;;;;;;;;;5166160;27;20193;-69
2022/07/24 08:47:47;;;;;;;7.10;6.50;;;;;;;;;;5165579;27;20394;-69
2022/07/24 08:50:16;;;;;;;7.25;6.45;;;;;;;;;;5165674;27;20193;-70
2022/07/24 08:52:43;;;;;;;7.55;6.95;;;;;;;;;;5165471;27;20500;-70
2022/07/24 08:55:09;;;;;;;7.43;6.65;;;;;;;;;;5165623;27;20236;-70
2022/07/24 08:57:36;;;;;;;7.40;6.80;;;;;;;;;;5165171;27;20264;-70
2022/07/24 09:00:03;;;;;;;7.32;6.53;;;;;;;;;;5165005;27;20213;-70
2022/07/24 09:02:30;;;;;;;6.95;6.40;;;;;;;;;;5165272;27;20193;-70
2022/07/24 09:05:00;;;;;;;7.03;6.53;;;;;;;;;;5165214;27;20398;-71
2022/07/24 09:07:28;;;;;;;7.47;6.82;;;;;;;;;;5164981;27;20201;-71
2022/07/24 09:09:58;;;;;;;9.35;6.45;;;;;;;;;;5165301;27;20256;-71
2022/07/24 09:12:24;;;;;;;7.13;6.53;;;;;;;;;;5165302;27;20228;-70
2022/07/24 09:14:51;;;;;;;7.60;6.65;;;;;;;;;;5165289;27;20193;-70
2022/07/24 09:17:19;;;;;;;6.80;6.28;;;;;;;;;;5164852;27;20445;-70
2022/07/24 09:19:51;;;;;;;7.32;6.70;;;;;;;;;;5164765;27;20219;-70
2022/07/24 09:22:18;;;;;;;7.30;6.57;;;;;;;;;;5165089;27;20215;-70
2022/07/24 09:24:44;;;;;;;6.47;5.85;;;;;;;;;;5165113;27;20193;-70
2022/07/24 09:27:14;;;;;;;5.75;5.35;;;;;;;;;;5164623;27;20194;-70
2022/07/24 09:29:40;;;;;;;7.30;6.50;;;;;;;;;;5164637;27;20186;-70
2022/07/24 09:32:06;;;;;;;7.47;6.43;;;;;;;;;;5164611;27;20479;-70
2022/07/24 09:34:38;;;;;;;6.68;5.85;;;;;;;;;;5164946;27;20197;-70
2022/07/24 09:37:07;;;;;;;6.60;5.93;;;;;;;;;;5164645;27;20438;-71
2022/07/24 09:39:35;;;;;;;6.88;6.22;;;;;;;;;;5164819;27;20217;-70
2022/07/24 09:42:02;;;;;;;6.95;6.32;;;;;;;;;;5165004;27;20197;-70
2022/07/24 09:44:30;;;;;;;6.38;5.75;;;;;;;;;;5165037;27;20201;-70
2022/07/24 09:46:57;;;;;;;6.70;6.07;;;;;;;;;;5164945;27;20201;-70
2022/07/24 09:49:24;;;;;;;7.82;5.65;;;;;;;;;;5165244;27;20190;-71
2022/07/24 09:54:44;;;;;;;6.78;6.22;;;;;;;;;;5099968;27;20684;-70
2022/07/24 09:57:18;;;;;;;6.57;6.03;;;;;;;;;;5149126;27;20201;-70
2022/07/24 09:59:46;;;;;;;6.05;5.53;;;;;;;;;;5161588;27;20197;-70
2022/07/24 10:02:13;;;;;;;6.93;6.15;;;;;;;;;;5161596;27;20205;-69
2022/07/24 10:04:41;;;;;;;6.40;5.78;;;;;;;;;;5161426;27;20379;-69
2022/07/24 10:07:10;;;;;;;6.38;5.97;;;;;;;;;;5161297;27;20195;-69
2022/07/24 10:09:36;;;;;;;6.40;5.90;;;;;;;;;;5161313;27;20197;-71
2022/07/24 10:12:06;;;;;;;6.88;6.30;;;;;;;;;;5161512;27;20193;-71
2022/07/24 10:14:32;;;;;;;6.80;6.05;;;;;;;;;;5161161;27;20224;-71
2022/07/24 10:17:04;;;;;;;6.38;5.95;;;;;;;;;;5161203;27;20201;-70
2022/07/24 10:19:37;;;;;;;6.97;6.22;;;;;;;;;;5161291;27;20200;-71
2022/07/24 10:22:07;;;;;;;7.00;6.40;;;;;;;;;;5161060;27;20198;-71
2022/07/24 10:24:43;;;;;;;6.28;5.68;;;;;;;;;;5161293;27;20193;-70
2022/07/24 10:27:26;;;;;;;7.57;6.20;;;;;;;;;;5161171;27;20207;-70
2022/07/24 10:29:53;;;;;;;7.65;5.88;;;;;;;;;;5160985;27;20193;-70
2022/07/24 10:32:19;;;;;;;6.78;6.10;;;;;;;;;;5160794;27;20193;-71
2022/07/24 10:34:47;;;;;;;6.50;6.00;;;;;;;;;;5160659;27;20239;-70
2022/07/24 10:37:16;;;;;;;6.80;6.20;;;;;;;;;;5160695;27;20189;-70
2022/07/24 10:39:47;;;;;;;6.13;5.65;;;;;;;;;;5160997;27;20193;-70
2022/07/24 10:42:14;;;;;;;6.40;5.90;;;;;;;;;;5160775;27;20201;-70
2022/07/24 10:44:41;;;;;;;6.10;5.60;;;;;;;;;;5160366;27;20234;-70
2022/07/24 10:47:08;;;;;;;6.72;6.10;;;;;;;;;;5160266;27;20436;-70
2022/07/24 10:49:45;;;;;;;6.70;5.97;;;;;;;;;;5160702;27;20197;-70
2022/07/24 10:52:12;;;;;;;6.60;5.95;;;;;;;;;;5160569;27;20199;-70
2022/07/24 10:54:39;;;;;;;6.10;5.50;;;;;;;;;;5160110;27;20224;-71
2022/07/24 10:57:05;;;;;;;6.50;6.00;;;;;;;;;;5160146;27;20194;-70
2022/07/24 10:59:34;;;;;;;6.10;5.60;;;;;;;;;;5160748;27;20224;-70
2022/07/24 11:02:15;;;;;;;6.43;5.75;;;;;;;;;;5160225;27;20235;-71
2022/07/24 11:04:41;;;;;;;6.60;5.80;;;;;;;;;;5154372;27;20211;-69
2022/07/24 11:07:09;;;;;;;5.78;5.38;;;;;;;;;;5146241;27;20209;-70
2022/07/24 11:09:54;;;;;;;6.35;5.78;;;;;;;;;;5146218;27;20194;-70
2022/07/24 11:12:27;;;;;;;5.38;4.90;;;;;;;;;;5146144;27;20494;-70
2022/07/24 11:15:54;;;;;;;6.45;5.65;;;;;;;;;;5146396;27;20400;-70
2022/07/24 11:17:45;;;;;;;6.40;5.82;;;;;;;;;;5145822;27;20231;-70
2022/07/24 11:20:12;;;;;;;8.90;5.70;;;;;;;;;;5146106;27;20220;-69
2022/07/24 11:22:43;;;;;;;5.88;5.40;;;;;;;;;;5146009;27;20197;-69
2022/07/24 11:25:10;;;;;;;6.82;5.80;;;;;;;;;;5146047;27;20202;-69
2022/07/24 11:27:47;;;;;;;5.70;5.20;;;;;;;;;;5145948;27;20421;-69
2022/07/24 11:30:15;;;;;;;6.07;5.57;;;;;;;;;;5145927;27;20213;-69
2022/07/24 11:32:42;;;;;;;5.75;5.25;;;;;;;;;;5145853;27;20357;-70
2022/07/24 11:35:09;;;;;;;5.38;5.07;;;;;;;;;;5145914;27;20255;-71
2022/07/24 11:37:36;;;;;;;8.82;5.78;;;;;;;;;;5145687;27;20205;-71
2022/07/24 11:40:03;;;;;;;6.18;5.68;;;;;;;;;;5145969;27;20478;-71
2022/07/24 11:42:29;;;;;;;6.32;5.80;;;;;;;;;;5145722;27;20220;-72
2022/07/24 11:44:55;;;;;;;5.97;5.40;;;;;;;;;;5127024;27;20211;-71
2022/07/24 11:47:24;;;;;;;6.40;5.43;;;;;;;;;;5029751;27;20510;-71
2022/07/24 11:49:52;;;;;;;5.35;5.05;;;;;;;;;;5029091;28;20217;-71
2022/07/24 11:52:19;;;;;;;6.55;6.03;;;;;;;;;;5034673;28;20216;-71
2022/07/24 11:54:46;;;;;;;5.88;5.10;;;;;;;;;;5036672;28;20217;-71
2022/07/24 11:57:20;;;;;;;5.50;5.10;;;;;;;;;;5040737;28;20197;-72
2022/07/24 11:59:47;;;;;;;6.03;5.45;;;;;;;;;;5040967;28;20202;-72
2022/07/24 12:02:13;;;;;;;6.05;5.65;;;;;;;;;;5040972;28;20212;-72
2022/07/24 12:04:42;;;;;;;5.70;5.22;;;;;;;;;;5040862;28;20268;-72
2022/07/24 12:07:09;;;;;;;5.57;5.07;;;;;;;;;;5040708;28;20203;-70
2022/07/24 12:09:44;;;;;;;6.38;5.95;;;;;;;;;;5041113;28;20197;-71
2022/07/24 12:12:18;;;;;;;6.00;5.50;;;;;;;;;;5040868;28;20201;-71
2022/07/24 12:14:44;;;;;;;7.53;5.97;;;;;;;;;;5040615;28;20228;-72
2022/07/24 12:17:10;;;;;;;5.32;4.93;;;;;;;;;;5039803;28;20372;-71
2022/07/24 12:19:36;;;;;;;5.80;5.30;;;;;;;;;;5041106;28;20550;-71
2022/07/24 12:22:04;;;;;;;5.53;4.97;;;;;;;;;;5040834;28;20501;-71
2022/07/24 12:24:31;;;;;;;5.82;5.38;;;;;;;;;;5040623;28;20200;-71
2022/07/24 12:26:58;;;;;;;6.72;5.07;;;;;;;;;;5040207;28;20366;-71
2022/07/24 12:29:25;;;;;;;6.15;5.65;;;;;;;;;;5040607;28;20608;-72
2022/07/24 12:31:54;;;;;;;6.47;5.22;;;;;;;;;;5040670;28;20197;-72
2022/07/24 12:34:20;;;;;;;5.57;5.25;;;;;;;;;;5040452;28;20225;-72
2022/07/24 12:36:47;;;;;;;5.75;5.20;;;;;;;;;;5040444;28;20204;-72
2022/07/24 12:39:14;;;;;;;5.85;5.30;;;;;;;;;;5040414;28;20197;-73
2022/07/24 12:41:47;;;;;;;6.05;5.55;;;;;;;;;;5040340;28;20234;-72
2022/07/24 12:44:13;;;;;;;5.95;5.55;;;;;;;;;;5040369;28;20262;-73
2022/07/24 12:46:40;;;;;;;5.72;5.40;;;;;;;;;;5040221;28;20395;-72
2022/07/24 12:49:08;;;;;;;6.28;5.65;;;;;;;;;;5040180;28;20246;-72
2022/07/24 12:51:44;;;;;;;6.07;5.68;;;;;;;;;;5040101;28;20441;-71
2022/07/24 12:54:15;;;;;;;6.25;5.90;;;;;;;;;;5039932;28;20217;-73
2022/07/24 12:56:43;;;;;;;6.43;5.40;;;;;;;;;;5039886;28;20235;-72
2022/07/24 12:59:11;;;;;;;6.18;5.70;;;;;;;;;;5040352;28;20201;-72
2022/07/24 13:01:45;;;;;;;5.78;5.47;;;;;;;;;;5039975;28;20498;-72
2022/07/24 13:04:11;;;;;;;6.63;6.10;;;;;;;;;;5040021;28;20194;-73
2022/07/24 13:06:39;;;;;;;5.82;5.43;;;;;;;;;;5040019;28;20221;-72
2022/07/24 13:09:07;;;;;;;5.63;5.13;;;;;;;;;;5040156;28;20257;-72
2022/07/24 13:11:34;;;;;;;6.70;5.55;;;;;;;;;;5040184;28;20228;-72
2022/07/24 13:14:01;;;;;;;6.35;5.85;;;;;;;;;;5040325;28;20224;-73
2022/07/24 13:16:30;;;;;;;6.10;5.65;;;;;;;;;;5039723;28;20364;-72
2022/07/24 13:18:56;;;;;;;5.30;5.00;;;;;;;;;;5039870;28;20198;-72
2022/07/24 13:21:22;;;;;;;5.80;5.40;;;;;;;;;;5039620;28;20197;-71
2022/07/24 13:23:49;;;;;;;5.90;5.50;;;;;;;;;;5039975;28;20194;-72
2022/07/24 13:26:15;;;;;;;5.60;5.20;;;;;;;;;;5039602;28;20204;-72
2022/07/24 13:28:41;;;;;;;6.85;5.70;;;;;;;;;;5038903;28;20197;-72
2022/07/24 13:31:09;;;;;;;6.30;5.80;;;;;;;;;;5039166;28;20208;-72
2022/07/24 13:33:35;;;;;;;5.97;5.47;;;;;;;;;;5039084;28;20197;-72
2022/07/24 13:36:01;;;;;;;5.70;5.20;;;;;;;;;;5039010;28;20205;-72
2022/07/24 13:38:28;;;;;;;6.30;5.80;;;;;;;;;;5039240;28;20201;-71
2022/07/24 13:40:54;;;;;;;5.95;5.35;;;;;;;;;;5038995;28;20197;-72
2022/07/24 13:43:20;;;;;;;5.82;5.25;;;;;;;;;;5039449;28;20243;-72
2022/07/24 13:45:46;;;;;;;5.63;5.22;;;;;;;;;;5039130;28;20208;-72
2022/07/24 13:48:14;;;;;;;5.40;5.07;;;;;;;;;;5038822;28;20501;-72
2022/07/24 13:50:40;;;;;;;6.00;5.60;;;;;;;;;;5039225;28;20251;-72
2022/07/24 13:53:07;;;;;;;7.18;5.25;;;;;;;;;;5038976;28;20276;-73
2022/07/24 13:55:33;;;;;;;5.85;5.35;;;;;;;;;;5038714;28;20572;-73
2022/07/24 13:57:59;;;;;;;5.93;5.43;;;;;;;;;;5038695;28;20201;-73
2022/07/24 14:00:26;;;;;;;5.72;5.35;;;;;;;;;;5038988;28;20322;-72
2022/07/24 14:02:54;;;;;;;7.03;5.07;;;;;;;;;;5038752;28;20521;-72
2022/07/24 14:05:22;;;;;;;6.03;5.40;;;;;;;;;;5038594;28;20213;-73
2022/07/24 14:07:49;;;;;;;5.47;5.18;;;;;;;;;;5038449;28;20197;-73
2022/07/24 14:10:15;;;;;;;5.65;5.13;;;;;;;;;;5038798;28;20288;-73
2022/07/24 14:12:41;;;;;;;5.25;4.95;;;;;;;;;;5038722;28;20242;-73
2022/07/24 14:15:09;;;;;;;5.93;5.22;;;;;;;;;;5038779;28;20547;-72
2022/07/24 14:17:35;;;;;;;6.10;5.60;;;;;;;;;;5038163;28;20269;-72
2022/07/24 14:20:02;;;;;;;7.28;5.53;;;;;;;;;;5038890;28;20527;-72
2022/07/24 14:22:29;;;;;;;5.45;5.07;;;;;;;;;;5038365;28;20205;-72
2022/07/24 14:24:56;;;;;;;7.50;5.60;;;;;;;;;;5038194;28;20202;-73
2022/07/24 14:27:22;;;;;;;6.55;6.05;;;;;;;;;;5038110;28;20198;-73
2022/07/24 14:29:48;;;;;;;5.47;5.13;;;;;;;;;;5037097;28;20412;-73
2022/07/24 14:32:15;;;;;;;5.95;5.45;;;;;;;;;;5028252;28;20533;-73